Time;durP1;ratioP1;P1;durP2;ratioP2;P2;SDS_P1;SDS_P2;PMS_P1;PMS_P2;Temp;Humidity;BMP_temperature;BMP_pressure;BME280_temperature;BME280_humidity;BME280_pressure;Samples;Min_cycle;Max_cycle;Signal;HPM_P1;HPM_P2
2022/03/23 00:01:09;;;;;;;44.78;29.42;;;;;;;10.76;47.88;102906.38;5051992;28;20049;-63
2022/03/23 00:03:35;;;;;;;45.40;28.50;;;;;;;10.65;48.08;102905.06;5046920;28;20492;-63
2022/03/23 00:06:02;;;;;;;43.97;29.67;;;;;;;10.63;48.33;102903.53;5050880;28;20131;-63
2022/03/23 00:08:27;;;;;;;43.83;30.13;;;;;;;10.57;48.29;102897.75;5053006;28;20558;-63
2022/03/23 00:10:52;;;;;;;45.00;29.48;;;;;;;10.56;48.26;102896.00;5052596;28;20052;-63
2022/03/23 00:13:18;;;;;;;47.17;29.77;;;;;;;10.51;48.29;102909.66;5051742;28;20032;-63
2022/03/23 00:15:43;;;;;;;46.92;29.55;;;;;;;10.53;48.45;102909.44;5052580;28;20111;-63
2022/03/23 00:18:09;;;;;;;43.28;30.45;;;;;;;10.48;48.64;102906.41;5052701;28;20044;-64
2022/03/23 00:20:34;;;;;;;43.83;30.15;;;;;;;10.43;48.81;102906.16;5052135;28;20056;-63
2022/03/23 00:23:00;;;;;;;41.38;28.67;;;;;;;10.41;48.37;102903.56;5052747;28;20025;-63
2022/03/23 00:25:26;;;;;;;46.40;28.52;;;;;;;10.36;48.25;102906.09;5037071;28;20059;-63
2022/03/23 00:27:51;;;;;;;43.92;29.17;;;;;;;10.35;48.43;102912.72;5046521;28;20036;-63
2022/03/23 00:30:17;;;;;;;39.08;27.02;;;;;;;10.31;48.13;102912.28;5053138;28;20017;-63
2022/03/23 00:32:42;;;;;;;41.75;27.77;;;;;;;10.26;48.62;102908.41;5052614;28;20130;-64
2022/03/23 00:35:08;;;;;;;41.63;26.95;;;;;;;10.24;48.34;102913.25;5052973;28;20361;-64
2022/03/23 00:37:33;;;;;;;42.70;28.23;;;;;;;10.16;48.41;102899.50;5052210;28;20392;-64
2022/03/23 00:39:59;;;;;;;39.72;26.55;;;;;;;10.17;48.33;102904.84;5052322;28;20456;-64
2022/03/23 00:42:24;;;;;;;44.35;27.08;;;;;;;10.14;48.82;102907.16;5059474;28;20032;-63
2022/03/23 00:44:51;;;;;;;45.85;27.55;;;;;;;10.08;48.81;102906.06;5056797;28;20087;-63
2022/03/23 00:47:17;;;;;;;41.03;26.60;;;;;;;10.06;48.58;102906.28;5051324;28;20035;-63
2022/03/23 00:49:42;;;;;;;40.20;26.88;;;;;;;10.05;48.66;102904.53;5052396;28;20024;-64
2022/03/23 00:52:08;;;;;;;38.40;26.30;;;;;;;9.98;48.84;102906.41;5052663;28;20376;-63
2022/03/23 00:54:34;;;;;;;42.20;27.63;;;;;;;9.99;48.96;102908.13;5043227;28;20029;-63
2022/03/23 00:57:01;;;;;;;46.88;26.52;;;;;;;9.92;48.64;102907.19;5051939;28;20494;-63
2022/03/23 00:59:26;;;;;;;38.70;26.85;;;;;;;9.94;48.75;102902.31;5052153;28;20131;-63
2022/03/23 01:01:52;;;;;;;40.47;25.80;;;;;;;9.90;48.48;102897.34;5046626;28;20136;-63
2022/03/23 01:04:18;;;;;;;40.38;25.77;;;;;;;9.83;49.13;102905.63;5052279;28;20074;-63
2022/03/23 01:06:43;;;;;;;40.10;26.75;;;;;;;9.78;49.14;102897.88;5052235;28;20040;-63
2022/03/23 01:09:09;;;;;;;43.35;27.83;;;;;;;9.81;48.89;102902.16;5045534;28;20017;-63
2022/03/23 01:11:34;;;;;;;41.80;27.52;;;;;;;9.81;49.08;102902.16;5051063;28;20047;-63
2022/03/23 01:13:59;;;;;;;43.13;27.70;;;;;;;9.77;49.13;102900.84;5052058;28;20017;-63
2022/03/23 01:16:25;;;;;;;37.70;26.52;;;;;;;9.69;49.29;102899.06;5050862;28;20060;-63
2022/03/23 01:18:50;;;;;;;45.58;27.45;;;;;;;9.69;49.25;102899.06;5051430;28;20047;-63
2022/03/23 01:21:16;;;;;;;45.58;27.92;;;;;;;9.63;48.78;102899.88;5051331;28;20073;-63
2022/03/23 01:23:44;;;;;;;46.40;28.42;;;;;;;9.64;48.87;102906.28;5050065;28;20025;-63
2022/03/23 01:26:09;;;;;;;40.72;28.15;;;;;;;9.62;49.45;102900.06;5038927;28;20040;-63
2022/03/23 01:28:35;;;;;;;40.70;26.90;;;;;;;9.57;49.05;102898.72;5050011;28;20064;-63
2022/03/23 01:31:00;;;;;;;43.72;27.88;;;;;;;9.54;49.77;102893.56;5039336;28;20482;-63
2022/03/23 01:33:25;;;;;;;37.67;26.83;;;;;;;9.49;49.69;102889.69;5051034;28;20112;-63
2022/03/23 01:35:51;;;;;;;42.78;27.42;;;;;;;9.43;49.64;102890.44;5050478;28;20033;-63
2022/03/23 01:38:16;;;;;;;48.22;26.98;;;;;;;9.45;49.67;102886.44;5047179;28;20112;-63
2022/03/23 01:40:42;;;;;;;38.47;26.55;;;;;;;9.47;49.99;102886.22;5051184;28;20396;-64
2022/03/23 01:43:07;;;;;;;44.10;27.20;;;;;;;9.45;48.91;102883.66;5047024;28;20021;-63
2022/03/23 01:45:32;;;;;;;35.53;25.88;;;;;;;9.40;49.19;102882.56;5050820;28;20029;-63
2022/03/23 01:47:58;;;;;;;40.33;27.20;;;;;;;9.37;49.72;102886.56;5047990;28;20036;-63
2022/03/23 01:50:23;;;;;;;39.15;26.85;;;;;;;9.32;49.64;102887.16;5050121;28;20024;-63
2022/03/23 01:52:48;;;;;;;49.30;27.85;;;;;;;9.25;49.62;102877.03;5051501;28;20033;-63
2022/03/23 01:55:14;;;;;;;48.78;29.17;;;;;;;9.21;49.80;102878.50;5050740;28;20033;-63
2022/03/23 01:57:43;;;;;;;44.40;28.17;;;;;;;9.20;49.87;102876.78;5035536;28;20035;-63
2022/03/23 02:00:09;;;;;;;40.40;28.42;;;;;;;9.14;50.18;102883.09;5034662;28;22209;-63
2022/03/23 02:02:34;;;;;;;43.50;27.48;;;;;;;9.15;50.48;102882.88;5050307;28;20131;-63
2022/03/23 02:05:01;;;;;;;46.05;27.90;;;;;;;9.12;50.60;102874.09;5050710;28;20124;-63
2022/03/23 02:07:26;;;;;;;45.38;29.38;;;;;;;9.08;49.88;102868.09;5050980;28;20029;-63
2022/03/23 02:09:51;;;;;;;42.17;27.60;;;;;;;9.10;49.99;102866.84;5050490;28;20087;-63
2022/03/23 02:12:17;;;;;;;47.45;27.70;;;;;;;9.07;50.03;102875.53;5030831;28;20045;-63
2022/03/23 02:14:42;;;;;;;43.88;29.33;;;;;;;9.01;50.14;102872.69;5048541;28;20033;-63
2022/03/23 02:17:08;;;;;;;42.40;27.50;;;;;;;8.97;50.40;102872.22;5051625;28;20456;-63
2022/03/23 02:19:39;;;;;;;47.55;28.27;;;;;;;8.95;50.90;102874.31;5049726;28;20031;-63
2022/03/23 02:22:05;;;;;;;46.03;28.67;;;;;;;8.92;50.84;102879.38;5050869;28;20056;-63
2022/03/23 02:24:31;;;;;;;47.80;27.95;;;;;;;8.87;50.58;102873.56;5051031;28;20431;-63
2022/03/23 02:26:58;;;;;;;45.70;29.10;;;;;;;8.82;50.79;102877.78;5044365;28;20040;-63
2022/03/23 02:29:29;;;;;;;45.75;29.30;;;;;;;8.79;50.52;102880.06;5051728;28;20026;-63
2022/03/23 02:31:56;;;;;;;53.28;30.85;;;;;;;8.71;50.70;102874.63;5051234;28;20029;-63
2022/03/23 02:34:22;;;;;;;47.22;29.55;;;;;;;8.75;50.28;102882.34;5050311;28;20039;-63
2022/03/23 02:36:47;;;;;;;45.63;29.65;;;;;;;8.75;51.13;102875.97;5050803;28;20559;-63
2022/03/23 02:39:13;;;;;;;48.60;30.50;;;;;;;8.69;50.70;102877.59;5051077;28;20035;-63
2022/03/23 02:41:39;;;;;;;46.38;30.23;;;;;;;8.67;50.63;102876.06;5064171;28;20028;-63
2022/03/23 02:44:05;;;;;;;44.65;29.63;;;;;;;8.64;51.08;102870.91;5050336;28;20092;-63
2022/03/23 02:46:35;;;;;;;45.72;30.33;;;;;;;8.64;51.34;102871.75;5049904;28;20158;-63
2022/03/23 02:49:02;;;;;;;46.13;29.33;;;;;;;8.57;51.23;102874.44;5049612;28;20025;-63
2022/03/23 02:51:28;;;;;;;45.42;29.48;;;;;;;8.56;51.08;102863.53;5049710;28;20037;-63
2022/03/23 03:02:39;;;;;;;49.33;27.88;;;;;;;8.51;51.09;102877.09;5020702;28;20084;-63
2022/03/23 03:05:06;;;;;;;48.83;30.05;;;;;;;8.45;51.59;102872.31;5029849;28;20080;-63
2022/03/23 03:10:21;;;;;;;48.10;30.58;;;;;;;8.39;50.91;102873.94;5032837;28;20396;-63
2022/03/23 03:12:48;;;;;;;44.45;30.20;;;;;;;8.36;51.29;102871.53;5034750;28;20041;-63
2022/03/23 03:15:18;;;;;;;48.88;30.67;;;;;;;8.30;51.88;102877.81;5032139;28;20062;-64
2022/03/23 03:17:44;;;;;;;46.22;30.10;;;;;;;8.30;51.70;102875.06;5033189;28;20148;-63
2022/03/23 03:20:10;;;;;;;48.83;30.48;;;;;;;8.29;51.50;102878.84;5034641;28;20136;-63
2022/03/23 03:22:38;;;;;;;49.70;30.55;;;;;;;8.23;51.66;102879.63;5033305;28;20511;-63
2022/03/23 03:25:04;;;;;;;48.72;30.00;;;;;;;8.23;51.68;102879.63;5034524;28;20029;-63
2022/03/23 03:27:36;;;;;;;49.15;30.65;;;;;;;8.20;51.48;102886.38;5034083;28;20041;-63
2022/03/23 03:30:07;;;;;;;53.83;31.10;;;;;;;8.15;52.11;102879.69;5033859;28;20034;-63
2022/03/23 03:32:33;;;;;;;50.67;30.52;;;;;;;8.15;51.25;102888.84;5032953;28;20047;-63
2022/03/23 03:34:58;;;;;;;49.00;30.70;;;;;;;8.11;51.92;102882.84;5034830;28;20025;-63
2022/03/23 03:37:24;;;;;;;47.22;29.67;;;;;;;8.10;52.37;102880.28;5033598;28;20029;-63
2022/03/23 03:39:49;;;;;;;51.53;31.15;;;;;;;8.12;52.26;102886.47;5035587;28;20029;-63
2022/03/23 03:42:15;;;;;;;51.13;31.60;;;;;;;8.12;51.80;102886.47;5034800;28;20104;-63
2022/03/23 03:44:40;;;;;;;54.10;31.25;;;;;;;8.07;52.30;102886.16;5033925;28;20033;-63
2022/03/23 03:47:05;;;;;;;53.05;31.33;;;;;;;8.10;52.03;102883.91;5034143;28;20082;-63
2022/03/23 03:49:34;;;;;;;51.28;30.98;;;;;;;8.08;52.05;102882.34;5033770;28;20056;-63
2022/03/23 03:52:01;;;;;;;52.05;31.63;;;;;;;7.99;52.58;102878.81;5035358;28;20489;-63
2022/03/23 03:54:26;;;;;;;50.15;31.25;;;;;;;7.96;52.08;102889.38;5034525;28;20116;-63
2022/03/23 03:56:51;;;;;;;53.72;31.95;;;;;;;8.02;52.12;102888.66;5030464;28;20101;-63
2022/03/23 03:59:16;;;;;;;48.88;32.00;;;;;;;8.00;52.26;102886.03;5034298;28;20757;-63
2022/03/23 04:01:42;;;;;;;50.10;30.70;;;;;;;7.97;51.84;102891.09;5049494;28;20048;-63
2022/03/23 04:04:07;;;;;;;53.30;32.00;;;;;;;7.87;52.55;102883.91;5053370;28;20033;-62
2022/03/23 04:06:33;;;;;;;51.13;31.52;;;;;;;7.93;52.26;102890.59;5053473;28;20040;-62
2022/03/23 04:08:58;;;;;;;54.25;32.95;;;;;;;7.92;52.93;102890.78;5053625;28;20025;-62
2022/03/23 04:11:24;;;;;;;45.92;32.00;;;;;;;7.83;52.62;102879.81;5052095;28;20508;-62
2022/03/23 04:13:49;;;;;;;48.65;30.75;;;;;;;7.91;52.07;102889.09;5036059;28;20036;-62
2022/03/23 04:16:14;;;;;;;48.20;30.92;;;;;;;7.83;53.02;102879.81;5054179;28;20120;-63
2022/03/23 04:18:39;;;;;;;54.90;32.42;;;;;;;7.78;53.12;102881.38;5052288;28;20075;-62
2022/03/23 04:21:05;;;;;;;53.05;32.08;;;;;;;7.77;52.85;102886.06;5053800;28;20056;-62
2022/03/23 04:23:30;;;;;;;53.42;33.10;;;;;;;7.73;52.37;102881.94;5053903;28;20029;-62
2022/03/23 04:25:56;;;;;;;46.17;31.95;;;;;;;7.74;52.61;102882.81;5053337;28;20025;-62
2022/03/23 04:28:24;;;;;;;53.45;31.90;;;;;;;7.71;53.23;102892.34;5053217;28;20033;-62
2022/03/23 04:30:49;;;;;;;50.33;32.78;;;;;;;7.63;53.06;102889.66;5052900;28;20044;-63
2022/03/23 04:33:14;;;;;;;50.92;32.63;;;;;;;7.63;52.55;102893.25;5045591;28;20037;-63
2022/03/23 04:35:42;;;;;;;49.95;32.03;;;;;;;7.57;53.15;102890.38;5041037;28;20109;-62
2022/03/23 04:38:08;;;;;;;53.88;32.90;;;;;;;7.51;52.88;102897.50;5039750;28;20021;-63
2022/03/23 04:40:33;;;;;;;52.95;31.52;;;;;;;7.50;53.12;102901.28;5050240;28;20044;-63
2022/03/23 04:42:59;;;;;;;53.67;31.52;;;;;;;7.49;52.63;102899.56;5049479;28;20368;-63
2022/03/23 04:45:24;;;;;;;54.50;32.70;;;;;;;7.44;52.99;102896.50;5050590;28;20032;-63
2022/03/23 04:47:49;;;;;;;49.60;32.47;;;;;;;7.41;53.04;102896.00;5050906;28;20021;-63
2022/03/23 04:50:16;;;;;;;48.42;31.83;;;;;;;7.43;53.26;102904.94;5053124;28;20392;-63
2022/03/23 04:52:46;;;;;;;57.35;34.28;;;;;;;7.37;53.52;102903.78;5051685;28;20033;-63
2022/03/23 04:55:13;;;;;;;55.20;30.85;;;;;;;7.31;53.26;102896.22;5048863;28;20028;-63
2022/03/23 04:57:42;;;;;;;55.83;31.60;;;;;;;7.32;53.32;102904.34;5050022;28;20079;-63
2022/03/23 05:00:10;;;;;;;51.30;31.80;;;;;;;7.29;53.11;102906.59;5053153;28;20025;-63
2022/03/23 05:02:37;;;;;;;52.95;32.33;;;;;;;7.29;53.31;102910.22;5053059;28;20380;-63
2022/03/23 05:05:03;;;;;;;50.28;31.77;;;;;;;7.29;53.52;102917.66;5052838;28;20033;-63
2022/03/23 05:07:28;;;;;;;47.72;32.25;;;;;;;7.25;53.55;102922.69;5046216;28;20033;-63
2022/03/23 05:09:56;;;;;;;49.55;32.22;;;;;;;7.24;53.31;102928.41;5039752;28;20017;-63
2022/03/23 05:12:21;;;;;;;51.03;31.85;;;;;;;7.24;53.11;102928.41;5045883;28;20037;-63
2022/03/23 05:14:46;;;;;;;54.28;32.65;;;;;;;7.19;53.89;102925.28;5052426;28;20082;-63
2022/03/23 05:17:12;;;;;;;48.78;30.35;;;;;;;7.21;53.11;102929.59;5052541;28;20029;-63
2022/03/23 05:19:37;;;;;;;46.55;31.35;;;;;;;7.13;53.38;102922.22;5052033;28;20487;-63
2022/03/23 05:22:03;;;;;;;45.50;30.92;;;;;;;7.14;53.79;102925.84;5048967;28;20021;-63
2022/03/23 05:24:29;;;;;;;47.35;31.73;;;;;;;7.09;53.39;102925.53;5051955;28;20032;-63
2022/03/23 05:26:55;;;;;;;48.85;31.38;;;;;;;7.08;53.72;102924.66;5049705;28;20606;-63
2022/03/23 05:29:21;;;;;;;47.90;31.63;;;;;;;7.07;53.77;102934.00;5033043;28;20091;-63
2022/03/23 05:31:46;;;;;;;48.40;32.38;;;;;;;7.06;53.85;102932.25;5040890;28;20033;-61
2022/03/23 05:34:11;;;;;;;54.85;32.22;;;;;;;7.11;54.24;102929.84;5041881;28;20451;-62
2022/03/23 05:36:39;;;;;;;51.50;32.47;;;;;;;7.04;54.20;102931.59;5051464;28;20032;-61
2022/03/23 05:39:07;;;;;;;53.20;33.63;;;;;;;7.01;54.00;102929.19;5051978;28;20013;-62
2022/03/23 05:41:32;;;;;;;51.67;31.58;;;;;;;7.03;53.88;102932.59;5051686;28;20433;-62
2022/03/23 05:44:00;;;;;;;55.00;31.63;;;;;;;7.00;54.17;102938.50;5051147;28;20102;-62
2022/03/23 05:46:29;;;;;;;53.83;31.02;;;;;;;6.99;54.00;102931.25;5042304;28;20036;-62
2022/03/23 05:48:54;;;;;;;52.63;32.67;;;;;;;6.97;54.11;102936.09;5045485;28;20484;-62
2022/03/23 05:51:19;;;;;;;55.70;32.65;;;;;;;6.98;54.09;102936.97;5049354;28;20029;-62
2022/03/23 05:53:54;;;;;;;51.25;32.45;;;;;;;7.05;54.13;102940.72;5046337;28;20037;-62
2022/03/23 05:56:19;;;;;;;49.35;32.95;;;;;;;6.93;54.40;102933.88;5041312;28;20025;-62
2022/03/23 05:58:44;;;;;;;56.13;33.88;;;;;;;6.98;54.17;102943.34;5050765;28;20032;-62
2022/03/23 06:01:10;;;;;;;52.58;33.28;;;;;;;6.96;54.73;102942.66;5049036;28;20052;-62
2022/03/23 06:03:37;;;;;;;59.85;35.05;;;;;;;6.98;54.36;102940.56;5050508;28;20826;-62
2022/03/23 06:06:03;;;;;;;49.60;32.05;;;;;;;7.02;54.83;102952.97;5045904;28;20036;-62
2022/03/23 06:08:29;;;;;;;53.00;33.03;;;;;;;7.01;55.13;102940.22;5051425;28;20029;-62
2022/03/23 06:10:54;;;;;;;53.72;32.42;;;;;;;7.06;54.57;102951.59;5047095;28;20039;-66
2022/03/23 06:13:20;;;;;;;55.92;32.20;;;;;;;7.05;54.92;102949.88;5051512;28;20025;-62
2022/03/23 06:15:46;;;;;;;67.85;33.78;;;;;;;7.05;55.20;102952.63;5050742;28;20439;-62
2022/03/23 06:18:11;;;;;;;59.65;32.28;;;;;;;7.06;55.01;102951.59;5052182;28;20021;-63
2022/03/23 06:21:01;;;;;;;52.65;33.35;;;;;;;7.08;54.91;102951.44;5050107;28;20028;-63
2022/03/23 06:23:26;;;;;;;55.45;32.67;;;;;;;7.11;55.23;102945.53;5031066;28;20060;-63
2022/03/23 06:26:01;;;;;;;47.22;32.30;;;;;;;7.17;55.03;102955.00;5045492;28;20029;-63
2022/03/23 06:28:27;;;;;;;51.17;33.25;;;;;;;7.15;55.40;102957.94;5050016;28;20029;-63
2022/03/23 06:30:53;;;;;;;50.25;32.97;;;;;;;7.19;55.29;102958.44;5049944;28;20032;-63
2022/03/23 06:33:19;;;;;;;51.38;33.95;;;;;;;7.22;54.81;102958.09;5049369;28;20379;-63
2022/03/23 06:35:45;;;;;;;52.22;32.80;;;;;;;7.23;54.89;102959.78;5049240;28;20059;-63
2022/03/23 06:38:11;;;;;;;56.35;33.28;;;;;;;7.27;55.17;102956.53;5046788;28;20074;-63
2022/03/23 06:40:36;;;;;;;60.65;33.95;;;;;;;7.29;55.63;102962.72;5049300;28;20021;-63
2022/03/23 06:43:02;;;;;;;55.03;33.85;;;;;;;7.38;55.28;102958.84;5052784;28;20508;-63
2022/03/23 06:45:30;;;;;;;49.42;34.17;;;;;;;7.36;55.34;102968.38;5043411;28;20485;-63
2022/03/23 06:47:58;;;;;;;52.55;35.38;;;;;;;7.43;54.88;102972.16;5041684;28;20037;-63
2022/03/23 06:50:24;;;;;;;57.17;34.80;;;;;;;7.44;55.55;102975.78;5048242;28;20029;-63
2022/03/23 06:52:50;;;;;;;71.50;35.38;;;;;;;7.49;55.56;102979.69;5047658;28;20042;-63
2022/03/23 06:55:15;;;;;;;66.63;36.60;;;;;;;7.54;55.26;102973.63;5052466;28;20024;-62
2022/03/23 06:57:40;;;;;;;59.55;36.00;;;;;;;7.62;54.97;102981.88;5051443;28;20031;-63
2022/03/23 07:00:13;;;;;;;57.03;36.20;;;;;;;7.69;55.71;102976.50;5047131;28;20033;-63
2022/03/23 07:02:43;;;;;;;63.55;35.40;;;;;;;7.79;55.43;102977.97;5043792;28;20033;-62
2022/03/23 07:05:13;;;;;;;59.30;36.05;;;;;;;7.86;55.43;102986.41;5049489;28;20399;-63
2022/03/23 07:09:31;;;;;;;57.35;35.88;;;;;;;7.98;54.51;102975.78;5051069;28;20032;-63
2022/03/23 07:10:24;;;;;;;53.00;35.33;;;;;;;8.08;53.80;102976.38;5050214;28;20029;-63
2022/03/23 07:12:50;;;;;;;56.55;35.58;;;;;;;8.21;53.45;102981.28;5049235;28;20124;-63
2022/03/23 07:15:16;;;;;;;63.47;37.38;;;;;;;8.29;53.24;102975.69;5048692;28;20030;-62
2022/03/23 07:17:41;;;;;;;61.45;37.88;;;;;;;8.33;53.73;102974.25;5053423;28;20396;-62
2022/03/23 07:20:07;;;;;;;60.65;36.58;;;;;;;8.45;53.43;102983.00;5054805;28;20036;-62
2022/03/23 07:22:34;;;;;;;53.17;37.10;;;;;;;8.49;54.00;102979.72;5046429;28;20083;-61
2022/03/23 07:25:03;;;;;;;53.80;36.13;;;;;;;8.53;53.22;102992.13;5061269;28;20048;-63
2022/03/23 07:27:29;;;;;;;56.13;36.40;;;;;;;8.61;52.19;102977.34;5052700;28;20063;-61
2022/03/23 07:29:55;;;;;;;55.00;35.55;;;;;;;8.69;52.84;102990.25;5052891;28;20055;-62
2022/03/23 07:32:23;;;;;;;57.55;35.75;;;;;;;8.74;52.62;102996.06;5042586;28;20044;-62
2022/03/23 07:34:49;;;;;;;48.83;34.10;;;;;;;8.84;51.80;102985.56;5043572;28;20132;-62
2022/03/23 07:37:15;;;;;;;54.40;34.60;;;;;;;8.93;51.76;102987.22;5046539;28;20112;-62
2022/03/23 07:39:40;;;;;;;44.00;26.27;;;;;;;9.38;56.45;102990.81;5056370;28;20052;-62
2022/03/23 07:42:06;;;;;;;52.90;33.60;;;;;;;9.29;50.40;102997.53;5054737;28;20055;-61
2022/03/23 07:44:34;;;;;;;47.97;31.75;;;;;;;9.42;49.87;102994.06;5043012;28;20029;-61
2022/03/23 07:47:06;;;;;;;46.88;31.90;;;;;;;9.51;50.60;102996.56;5052661;28;20025;-61
2022/03/23 07:49:31;;;;;;;47.38;33.50;;;;;;;9.60;49.60;102994.53;5047096;28;20033;-62
2022/03/23 07:52:02;;;;;;;50.13;33.10;;;;;;;9.70;49.71;102994.19;5039700;28;20041;-60
2022/03/23 07:54:27;;;;;;;55.25;35.15;;;;;;;9.81;48.68;102999.25;5050141;28;20032;-61
2022/03/23 07:56:52;;;;;;;49.22;32.42;;;;;;;9.93;48.46;102999.59;5049239;28;20029;-63
2022/03/23 07:59:18;;;;;;;51.78;38.03;;;;;;;10.04;48.76;103001.84;5039499;28;20491;-61
2022/03/23 08:01:43;;;;;;;47.03;34.67;;;;;;;10.17;48.08;103009.44;5044022;28;20053;-61
2022/03/23 08:04:08;;;;;;;52.22;35.30;;;;;;;10.30;48.24;103012.41;5044958;28;20024;-61
2022/03/23 08:06:35;;;;;;;49.95;33.90;;;;;;;10.46;47.76;103012.13;5047043;28;20052;-61
2022/03/23 08:09:02;;;;;;;46.92;33.78;;;;;;;10.62;47.72;103010.13;5045550;28;20050;-61
2022/03/23 08:11:28;;;;;;;53.72;35.38;;;;;;;10.73;47.57;103009.59;5032733;28;20091;-61
2022/03/23 08:13:53;;;;;;;56.10;35.92;;;;;;;10.88;47.50;103012.25;5055414;28;20455;-61
2022/03/23 08:16:18;;;;;;;48.50;34.20;;;;;;;11.03;45.79;103001.88;5049464;28;20476;-61
2022/03/23 08:18:46;;;;;;;52.05;36.58;;;;;;;11.16;47.39;103007.53;5039643;28;20496;-61
2022/03/23 08:21:11;;;;;;;47.95;34.33;;;;;;;11.30;47.64;103000.13;5050336;28;20075;-61
2022/03/23 08:23:40;;;;;;;52.00;35.85;;;;;;;11.43;47.26;103004.88;5050335;28;20036;-61
2022/03/23 08:26:09;;;;;;;53.80;35.53;;;;;;;11.57;47.25;103014.16;5046931;28;20037;-61
2022/03/23 08:28:35;;;;;;;55.45;34.42;;;;;;;11.70;46.33;103000.28;5050288;28;20376;-61
2022/03/23 08:31:01;;;;;;;58.65;35.78;;;;;;;11.84;46.71;103004.03;5044689;28;20039;-60
2022/03/23 08:33:32;;;;;;;51.58;35.95;;;;;;;11.97;46.52;103004.91;5052986;28;20032;-61
2022/03/23 08:35:58;;;;;;;53.33;36.25;;;;;;;12.10;46.10;103008.78;5050228;28;20052;-61
2022/03/23 08:38:23;;;;;;;50.97;36.13;;;;;;;12.25;45.92;103003.91;5050460;28;20472;-60
2022/03/23 08:40:48;;;;;;;56.03;35.15;;;;;;;12.37;45.04;103007.75;5047959;28;20053;-60
2022/03/23 08:43:14;;;;;;;49.58;35.95;;;;;;;12.49;45.41;103008.84;5047384;28;20029;-60
2022/03/23 08:45:39;;;;;;;46.90;33.47;;;;;;;12.60;44.98;103000.94;5048234;28;20040;-60
2022/03/23 08:48:04;;;;;;;53.22;35.00;;;;;;;12.76;45.56;103001.34;5054990;28;20043;-61
2022/03/23 08:50:30;;;;;;;36.72;26.73;;;;;;;13.12;47.56;103002.78;5045910;28;20387;-61
2022/03/23 08:52:56;;;;;;;45.13;33.20;;;;;;;13.32;46.16;103008.34;5049659;28;20049;-61
2022/03/23 08:55:23;;;;;;;46.25;30.65;;;;;;;13.47;44.42;103010.88;5050308;28;20039;-61
2022/03/23 08:57:48;;;;;;;48.80;31.85;;;;;;;13.64;43.31;103009.31;5049354;28;20040;-61
2022/03/23 09:00:15;;;;;;;44.25;32.15;;;;;;;13.79;43.96;103008.16;5048870;28;20045;-61
2022/03/23 09:02:40;;;;;;;45.95;32.40;;;;;;;13.82;42.35;103004.94;5046286;28;20392;-61
2022/03/23 09:05:10;;;;;;;50.80;34.13;;;;;;;13.92;41.16;103005.31;5050314;28;20029;-61
2022/03/23 09:07:37;;;;;;;46.05;31.67;;;;;;;14.19;42.98;103003.25;5049282;28;20029;-61
2022/03/23 09:10:03;;;;;;;42.83;32.13;;;;;;;14.36;42.18;103006.34;5051518;28;20029;-61
2022/03/23 09:12:34;;;;;;;44.08;30.33;;;;;;;14.59;42.11;103002.97;5052694;28;20032;-61
2022/03/23 09:15:00;;;;;;;41.45;29.70;;;;;;;14.73;41.43;103001.75;5052890;28;20029;-61
2022/03/23 09:17:25;;;;;;;44.95;30.92;;;;;;;14.83;41.16;102999.31;5049391;28;20025;-62
2022/03/23 09:19:50;;;;;;;45.05;29.35;;;;;;;15.02;41.40;103002.16;5048281;28;20029;-61
2022/03/23 09:22:16;;;;;;;40.75;29.70;;;;;;;15.17;41.07;103005.44;5048904;28;20036;-61
2022/03/23 09:24:41;;;;;;;44.72;30.83;;;;;;;15.20;40.87;103003.00;5050027;28;20116;-62
2022/03/23 09:27:06;;;;;;;39.95;29.25;;;;;;;15.30;40.81;102998.81;5050147;28;20063;-61
2022/03/23 09:29:32;;;;;;;44.72;31.10;;;;;;;15.34;40.62;103000.91;5052494;28;20091;-61
2022/03/23 09:31:58;;;;;;;45.42;32.35;;;;;;;15.40;40.28;103002.75;5051616;28;20116;-61
2022/03/23 09:34:23;;;;;;;50.83;34.13;;;;;;;15.37;39.34;103000.47;5045976;28;20347;-61
2022/03/23 09:39:33;;;;;;;47.28;33.85;;;;;;;15.39;38.87;103003.88;5046745;28;20036;-62
2022/03/23 09:41:59;;;;;;;36.03;26.10;;;;;;;15.66;41.06;103003.56;5044707;28;20696;-62
2022/03/23 09:44:28;;;;;;;46.47;32.22;;;;;;;15.64;38.99;103003.78;5048581;28;20376;-61
2022/03/23 09:46:54;;;;;;;48.58;31.60;;;;;;;15.69;38.99;103006.75;5048402;28;20040;-61
2022/03/23 09:49:21;;;;;;;49.53;32.78;;;;;;;15.72;38.93;103011.06;5046666;28;20021;-61
2022/03/23 09:51:51;;;;;;;44.92;32.80;;;;;;;15.69;39.09;102995.56;5048489;28;20033;-61
2022/03/23 09:54:16;;;;;;;43.15;32.35;;;;;;;15.80;39.07;103004.25;5047708;28;20035;-61
2022/03/23 09:56:42;;;;;;;50.50;34.97;;;;;;;15.82;39.24;103002.06;5046864;28;20021;-61
2022/03/23 09:59:07;;;;;;;50.88;33.85;;;;;;;15.85;38.25;103008.06;5042632;28;20136;-61
2022/03/23 10:01:33;;;;;;;46.17;31.30;;;;;;;15.94;38.62;103005.78;5036780;28;20057;-61
2022/03/23 10:04:17;;;;;;;49.40;32.53;;;;;;;16.05;39.06;103001.34;5034539;28;20090;-61
2022/03/23 10:06:51;;;;;;;43.95;31.25;;;;;;;16.03;37.03;103006.31;5027558;28;20040;-61
2022/03/23 10:09:25;;;;;;;43.70;30.13;;;;;;;16.06;35.08;103003.03;5028458;28;20043;-61
2022/03/23 10:12:19;;;;;;;41.45;28.85;;;;;;;16.13;35.68;103012.19;5029884;28;20186;-61
2022/03/23 10:14:44;;;;;;;39.78;28.23;;;;;;;16.26;34.73;102999.94;5029940;28;20035;-61
2022/03/23 10:17:28;;;;;;;41.58;29.25;;;;;;;16.35;34.16;103006.91;5028367;28;20033;-62
2022/03/23 10:19:54;;;;;;;39.03;29.33;;;;;;;16.54;34.39;103011.31;5028220;28;20040;-63
2022/03/23 10:22:26;;;;;;;43.17;29.13;;;;;;;16.56;33.62;103008.31;5027681;28;20111;-63
2022/03/23 10:24:51;;;;;;;44.15;29.42;;;;;;;16.52;32.46;103007.06;5029367;28;20044;-63
2022/03/23 10:27:22;;;;;;;42.50;28.85;;;;;;;16.59;31.99;103007.81;5030109;28;20040;-62
2022/03/23 10:29:51;;;;;;;39.80;27.97;;;;;;;16.73;31.82;103006.50;5024958;28;20034;-63
2022/03/23 10:32:17;;;;;;;42.92;28.60;;;;;;;16.72;31.64;103003.94;5027430;28;20037;-62
2022/03/23 10:34:51;;;;;;;37.17;28.17;;;;;;;16.81;31.75;103005.31;5020794;28;20492;-61
2022/03/23 10:37:29;;;;;;;35.50;25.58;;;;;;;16.89;31.90;102997.38;5024746;28;20473;-61
2022/03/23 10:39:56;;;;;;;42.13;27.48;;;;;;;16.96;30.81;102999.22;5026835;28;20030;-61
2022/03/23 10:42:26;;;;;;;35.28;25.48;;;;;;;16.96;30.74;102999.22;5035419;28;20060;-60
2022/03/23 10:45:08;;;;;;;36.90;25.02;;;;;;;16.97;30.73;102996.16;5034562;28;20033;-60
2022/03/23 10:47:34;;;;;;;35.10;24.60;;;;;;;17.01;29.51;102993.72;5028628;28;20021;-61
2022/03/23 10:50:13;;;;;;;33.63;26.02;;;;;;;17.05;29.91;102989.31;5029335;28;20440;-62
2022/03/23 10:53:08;;;;;;;37.55;26.13;;;;;;;17.07;31.47;102984.34;5039876;28;20103;-61
2022/03/23 10:55:49;;;;;;;39.22;28.05;;;;;;;17.12;31.01;102992.88;5017579;28;20033;-60
2022/03/23 10:58:21;;;;;;;35.60;25.90;;;;;;;17.16;29.20;102980.91;5027440;28;20053;-60
2022/03/23 11:00:48;;;;;;;36.78;25.58;;;;;;;17.23;29.56;102986.38;5032437;28;20063;-60
2022/03/23 11:03:13;;;;;;;35.90;25.15;;;;;;;17.29;29.52;102981.72;5044184;28;20091;-58
2022/03/23 11:05:42;;;;;;;37.58;26.05;;;;;;;17.27;28.88;102984.78;5044732;28;20468;-58
2022/03/23 11:08:08;;;;;;;33.25;25.08;;;;;;;17.32;27.87;102982.09;5040872;28;20039;-60
2022/03/23 11:16:09;;;;;;;32.43;24.13;;;;;;;17.56;27.53;102976.41;5041133;28;20040;-60
2022/03/23 11:18:34;;;;;;;33.08;23.63;;;;;;;17.57;28.06;102976.19;5038796;28;20904;-61
2022/03/23 11:21:00;;;;;;;32.42;23.45;;;;;;;17.65;27.55;102978.59;5045430;28;20029;-61
2022/03/23 11:23:36;;;;;;;35.38;24.33;;;;;;;17.67;27.53;102975.53;5041778;28;20138;-60
2022/03/23 11:26:08;;;;;;;34.95;25.98;;;;;;;17.62;27.99;102967.88;5046447;28;20020;-61
2022/03/23 11:28:36;;;;;;;;;;;;;;;17.68;30.43;102968.81;5041110;28;20431;-61
2022/03/23 11:31:04;;;;;;;35.30;23.88;;;;;;;17.79;28.31;102967.94;5048122;28;19924;-61
2022/03/23 11:33:32;;;;;;;36.78;25.33;;;;;;;17.87;27.64;102967.56;5043071;28;20025;-62